Time;durP1;ratioP1;P1;durP2;ratioP2;P2;SDS_P1;SDS_P2;PMS_P1;PMS_P2;Temp;Humidity;BMP_temperature;BMP_pressure;BME280_temperature;BME280_humidity;BME280_pressure;Samples;Min_cycle;Max_cycle;Signal;HPM_P1;HPM_P2
2022/08/22 00:02:27;;;;;;;4.65;2.67;;;19.80;99.90;;;;;;5021430;28;20523;-59
2022/08/22 00:05:08;;;;;;;5.60;2.75;;;19.90;99.90;;;;;;5029869;28;20253;-59
2022/08/22 00:07:53;;;;;;;5.97;2.88;;;19.90;99.90;;;;;;5012699;28;20281;-59
2022/08/22 00:10:50;;;;;;;5.53;2.55;;;19.90;99.90;;;;;;5016612;28;20175;-60
2022/08/22 00:13:38;;;;;;;3.65;2.85;;;20.00;99.90;;;;;;5013160;28;20182;-59
2022/08/22 00:16:15;;;;;;;3.03;2.60;;;19.90;99.90;;;;;;5013199;28;20210;-59
2022/08/22 00:18:47;;;;;;;5.88;2.92;;;19.90;99.90;;;;;;5012818;28;20285;-59
2022/08/22 00:21:30;;;;;;;9.15;4.07;;;19.90;99.90;;;;;;5013171;28;20230;-60
2022/08/22 00:24:25;;;;;;;6.88;4.25;;;20.00;99.90;;;;;;5013125;28;20185;-60
2022/08/22 00:27:08;;;;;;;6.50;4.57;;;19.90;99.90;;;;;;5013542;28;20172;-59
2022/08/22 00:29:41;;;;;;;7.80;2.25;;;19.90;99.90;;;;;;5011481;28;20175;-59
2022/08/22 00:32:27;;;;;;;3.92;3.25;;;19.80;99.90;;;;;;5023822;28;20245;-59
2022/08/22 00:35:01;;;;;;;4.50;2.85;;;19.80;99.90;;;;;;5056236;28;20207;-59
2022/08/22 00:37:38;;;;;;;5.60;3.13;;;19.80;99.90;;;;;;5015844;28;20588;-59
2022/08/22 00:40:45;;;;;;;3.85;2.83;;;19.70;99.90;;;;;;5032582;28;20181;-60
2022/08/22 00:43:16;;;;;;;3.00;2.78;;;19.70;99.90;;;;;;5019310;28;20197;-60
2022/08/22 00:45:57;;;;;;;3.05;2.75;;;19.70;99.90;;;;;;5022470;28;20171;-60
2022/08/22 00:48:28;;;;;;;3.25;2.92;;;19.60;99.90;;;;;;5028365;28;20189;-59
2022/08/22 00:51:13;;;;;;;6.57;3.85;;;19.60;99.90;;;;;;5030985;28;20624;-59
2022/08/22 00:53:45;;;;;;;5.70;2.67;;;19.50;99.90;;;;;;5019082;28;20670;-59
2022/08/22 00:56:40;;;;;;;2.55;2.35;;;19.50;99.90;;;;;;5021601;28;20715;-60
2022/08/22 00:59:30;;;;;;;7.47;3.22;;;19.50;99.90;;;;;;5019056;28;20191;-60
2022/08/22 01:02:02;;;;;;;4.00;3.30;;;19.60;99.90;;;;;;5024555;28;20178;-59
2022/08/22 01:04:49;;;;;;;8.15;3.05;;;19.60;99.90;;;;;;5016028;28;20179;-60
2022/08/22 01:07:43;;;;;;;8.57;3.10;;;19.50;99.90;;;;;;5018644;28;20199;-60
2022/08/22 01:10:27;;;;;;;5.88;3.15;;;19.40;99.90;;;;;;5015979;28;20186;-61
2022/08/22 01:13:26;;;;;;;6.90;3.00;;;19.50;99.90;;;;;;5017421;28;20229;-60
2022/08/22 01:16:14;;;;;;;5.93;3.33;;;19.40;99.90;;;;;;5019955;28;20198;-60
2022/08/22 01:19:08;;;;;;;5.05;2.97;;;19.30;99.90;;;;;;5025552;28;20195;-60
2022/08/22 01:22:02;;;;;;;3.40;3.10;;;19.40;99.90;;;;;;5030395;28;20174;-60
2022/08/22 01:25:18;;;;;;;11.40;3.67;;;19.30;99.90;;;;;;5022306;28;20193;-60
2022/08/22 01:28:07;;;;;;;8.25;3.35;;;19.10;99.90;;;;;;5026946;28;20693;-60
2022/08/22 01:30:57;;;;;;;4.70;2.78;;;18.90;99.90;;;;;;5016318;28;20187;-60
2022/08/22 01:34:16;;;;;;;7.38;3.00;;;18.80;99.90;;;;;;5029998;28;20178;-59
2022/08/22 01:37:03;;;;;;;4.15;2.83;;;18.90;99.90;;;;;;5028422;28;20686;-62
2022/08/22 01:39:32;;;;;;;5.43;3.25;;;18.70;99.90;;;;;;5015776;28;20638;-61
2022/08/22 01:42:13;;;;;;;2.80;2.28;;;18.70;99.90;;;;;;5029692;28;20194;-59
2022/08/22 01:44:56;;;;;;;3.65;3.33;;;18.80;99.90;;;;;;5018683;28;20183;-60
2022/08/22 01:47:45;;;;;;;6.88;3.38;;;18.90;99.90;;;;;;5017453;28;20226;-59
2022/08/22 01:50:14;;;;;;;8.13;2.88;;;18.90;99.90;;;;;;5028020;28;20176;-60
2022/08/22 01:52:40;;;;;;;3.78;2.85;;;19.00;99.90;;;;;;5020330;28;20176;-59
2022/08/22 01:55:30;;;;;;;5.70;2.83;;;19.10;99.90;;;;;;5020886;28;20179;-59
2022/08/22 01:58:16;;;;;;;5.00;2.63;;;19.10;99.90;;;;;;5015733;28;20202;-60
2022/08/22 02:01:07;;;;;;;8.75;4.53;;;19.10;99.90;;;;;;5015471;28;20176;-61
2022/08/22 02:03:55;;;;;;;3.65;2.88;;;19.20;99.90;;;;;;5015168;28;20179;-59
2022/08/22 02:07:03;;;;;;;3.72;3.35;;;19.20;99.90;;;;;;5015510;28;20217;-60
2022/08/22 02:09:52;;;;;;;3.40;3.10;;;19.20;99.90;;;;;;5023633;28;20203;-59
2022/08/22 02:12:17;;;;;;;7.70;4.10;;;19.20;99.90;;;;;;5018715;28;20612;-59
2022/08/22 02:14:58;;;;;;;8.95;3.88;;;19.20;99.90;;;;;;5015250;28;20258;-60
2022/08/22 02:17:44;;;;;;;5.57;2.65;;;19.20;99.90;;;;;;5014530;28;20199;-60
2022/08/22 02:20:16;;;;;;;3.25;2.88;;;19.10;99.90;;;;;;5013519;28;20186;-59
2022/08/22 02:23:20;;;;;;;5.35;3.20;;;19.10;99.90;;;;;;5013864;28;20186;-59
2022/08/22 02:25:52;;;;;;;7.25;4.43;;;19.10;99.90;;;;;;5028228;28;20177;-59
2022/08/22 02:28:26;;;;;;;11.15;5.05;;;19.10;99.90;;;;;;5019298;28;20273;-59
2022/08/22 02:31:09;;;;;;;6.10;2.90;;;19.00;99.90;;;;;;5022909;28;20185;-60
2022/08/22 02:33:51;;;;;;;9.40;3.50;;;19.00;99.90;;;;;;5020712;28;20181;-60
2022/08/22 02:36:21;;;;;;;6.15;2.97;;;19.00;99.90;;;;;;5024748;28;20179;-60
2022/08/22 02:39:16;;;;;;;3.78;3.45;;;19.00;99.90;;;;;;5034012;28;20260;-60
2022/08/22 02:41:52;;;;;;;6.47;2.80;;;19.00;99.90;;;;;;5006838;28;20195;-60
2022/08/22 02:44:37;;;;;;;5.18;2.60;;;19.10;99.90;;;;;;5014601;28;20171;-60
2022/08/22 02:47:26;;;;;;;3.95;3.25;;;19.10;99.90;;;;;;5014867;28;20182;-59
2022/08/22 02:50:10;;;;;;;4.97;3.40;;;19.10;99.90;;;;;;5027247;28;20179;-60
2022/08/22 02:53:00;;;;;;;3.72;2.90;;;19.20;99.90;;;;;;5020722;28;20682;-59
2022/08/22 02:55:37;;;;;;;5.70;3.40;;;19.20;99.90;;;;;;5014786;28;20184;-59
2022/08/22 02:58:06;;;;;;;9.05;3.17;;;19.20;99.90;;;;;;5058774;28;20289;-61
2022/08/22 03:01:22;;;;;;;4.43;3.00;;;19.20;99.90;;;;;;5022130;28;20182;-60
2022/08/22 03:03:49;;;;;;;3.38;2.85;;;19.30;99.90;;;;;;5018579;28;20198;-60
2022/08/22 03:06:37;;;;;;;3.10;2.50;;;19.30;99.90;;;;;;5016414;28;20617;-60
2022/08/22 03:09:20;;;;;;;4.75;4.45;;;19.20;99.90;;;;;;5018477;28;20218;-59
2022/08/22 03:12:12;;;;;;;2.90;2.70;;;19.20;99.90;;;;;;5021583;28;20179;-60
2022/08/22 03:14:54;;;;;;;4.15;3.10;;;19.20;99.90;;;;;;5029113;28;20189;-59
2022/08/22 03:17:39;;;;;;;8.52;3.42;;;19.20;99.90;;;;;;5030062;28;20182;-59
2022/08/22 03:20:12;;;;;;;3.25;2.92;;;19.10;99.90;;;;;;5027977;28;20187;-60
2022/08/22 03:22:55;;;;;;;4.40;3.30;;;19.10;99.90;;;;;;5014518;28;20210;-59
2022/08/22 03:25:56;;;;;;;3.95;3.30;;;19.10;99.90;;;;;;5015561;28;20641;-59
2022/08/22 03:28:30;;;;;;;7.35;3.30;;;19.10;99.90;;;;;;5029356;28;21194;-59
2022/08/22 03:30:58;;;;;;;6.60;3.25;;;19.00;99.90;;;;;;5020872;28;20222;-59
2022/08/22 03:33:30;;;;;;;6.30;3.58;;;18.90;99.90;;;;;;5017389;28;20182;-60
2022/08/22 03:36:20;;;;;;;4.72;3.33;;;18.80;99.90;;;;;;5025362;28;20312;-59
2022/08/22 03:39:12;;;;;;;4.10;3.15;;;18.80;99.90;;;;;;5045605;28;20648;-60
2022/08/22 03:42:16;;;;;;;3.70;3.30;;;18.90;99.90;;;;;;5013899;28;20219;-59
2022/08/22 03:45:09;;;;;;;12.13;3.47;;;18.80;99.90;;;;;;5008841;28;20515;-60
2022/08/22 03:47:50;;;;;;;11.73;4.70;;;18.80;99.90;;;;;;5026533;28;20163;-59
2022/08/22 03:50:34;;;;;;;6.22;3.47;;;18.90;99.90;;;;;;5014334;28;20181;-59
2022/08/22 03:53:25;;;;;;;5.80;3.85;;;18.80;99.90;;;;;;5020635;28;20229;-60
2022/08/22 03:56:21;;;;;;;4.35;3.22;;;18.90;99.90;;;;;;5013483;28;20203;-59
2022/08/22 03:59:05;;;;;;;9.93;3.55;;;18.90;99.90;;;;;;5013319;28;20667;-60
2022/08/22 04:01:41;;;;;;;17.33;4.07;;;18.80;99.90;;;;;;5027435;28;20631;-61
2022/08/22 04:04:09;;;;;;;9.55;3.20;;;18.80;99.90;;;;;;5013415;28;20233;-60
2022/08/22 04:06:57;;;;;;;5.95;3.67;;;18.80;99.90;;;;;;5013661;28;20195;-60
2022/08/22 04:09:43;;;;;;;6.60;3.70;;;18.70;99.90;;;;;;5017051;28;20185;-60
2022/08/22 04:12:33;;;;;;;3.88;3.15;;;18.70;99.90;;;;;;5013255;28;20254;-59
2022/08/22 04:15:47;;;;;;;4.75;3.92;;;18.70;99.90;;;;;;5026588;28;20186;-59
2022/08/22 04:18:42;;;;;;;4.18;3.30;;;18.80;99.90;;;;;;5015734;28;20203;-59
2022/08/22 04:21:27;;;;;;;5.30;3.42;;;18.70;99.90;;;;;;5013544;28;20624;-60
2022/08/22 04:23:55;;;;;;;8.05;3.17;;;18.70;99.90;;;;;;5024834;28;20175;-62
2022/08/22 04:26:36;;;;;;;3.65;3.25;;;18.70;99.90;;;;;;5031049;28;20635;-59
2022/08/22 04:29:07;;;;;;;8.65;3.33;;;18.60;99.90;;;;;;5022037;28;20190;-60
2022/08/22 04:31:45;;;;;;;5.20;4.68;;;18.60;99.90;;;;;;5026470;28;20187;-59
2022/08/22 04:34:23;;;;;;;4.50;3.13;;;18.60;99.90;;;;;;5013245;28;20174;-59
2022/08/22 04:36:54;;;;;;;5.80;3.78;;;18.60;99.90;;;;;;5028687;28;20183;-60
2022/08/22 04:39:40;;;;;;;9.85;3.85;;;18.60;99.90;;;;;;5025797;28;20596;-60
2022/08/22 04:42:21;;;;;;;3.83;3.50;;;18.60;99.90;;;;;;5016393;28;20233;-59
2022/08/22 04:45:01;;;;;;;9.82;3.58;;;18.60;99.90;;;;;;5019398;28;20167;-60
2022/08/22 04:47:38;;;;;;;4.82;3.50;;;18.60;99.90;;;;;;5016795;28;20603;-59
2022/08/22 04:50:12;;;;;;;4.80;3.58;;;18.50;99.90;;;;;;5032839;28;20166;-60
2022/08/22 04:52:47;;;;;;;9.18;3.58;;;18.60;99.90;;;;;;5016659;28;20183;-59
2022/08/22 04:55:34;;;;;;;7.80;4.00;;;18.50;99.90;;;;;;5024029;28;20224;-60
2022/08/22 04:58:27;;;;;;;7.20;3.70;;;18.40;99.90;;;;;;5027157;28;20178;-59
2022/08/22 05:01:41;;;;;;;8.20;4.32;;;18.40;99.90;;;;;;5015461;28;20183;-59
2022/08/22 05:04:23;;;;;;;6.40;3.35;;;18.50;99.90;;;;;;5014111;28;20176;-59
2022/08/22 05:07:04;;;;;;;6.50;3.90;;;18.50;99.90;;;;;;5001694;28;20237;-59
2022/08/22 05:09:34;;;;;;;9.43;3.38;;;18.50;99.90;;;;;;5010209;28;20192;-63
2022/08/22 05:12:07;;;;;;;4.90;3.42;;;18.60;99.90;;;;;;5028887;28;20615;-60
2022/08/22 05:14:42;;;;;;;7.53;4.07;;;18.70;99.90;;;;;;5017287;28;20182;-59
2022/08/22 05:17:12;;;;;;;7.93;4.18;;;18.70;99.90;;;;;;5030534;28;20170;-60
2022/08/22 05:19:43;;;;;;;7.28;3.33;;;18.80;99.90;;;;;;5024137;28;20699;-59
2022/08/22 05:22:17;;;;;;;4.53;3.88;;;18.80;99.90;;;;;;5028676;28;20190;-59
2022/08/22 05:24:47;;;;;;;7.68;4.57;;;18.80;99.90;;;;;;5019196;28;20175;-59
2022/08/22 05:27:19;;;;;;;4.70;3.45;;;18.80;99.90;;;;;;5035395;28;20175;-59
2022/08/22 05:29:48;;;;;;;5.70;4.55;;;18.90;99.90;;;;;;5035121;28;20170;-59
2022/08/22 05:32:23;;;;;;;5.75;4.38;;;19.00;99.90;;;;;;5021850;28;20184;-60
2022/08/22 05:34:52;;;;;;;7.22;4.22;;;18.90;99.90;;;;;;5021641;28;20569;-59
2022/08/22 05:37:23;;;;;;;6.80;4.65;;;19.10;99.90;;;;;;5017337;28;20195;-59
2022/08/22 05:39:54;;;;;;;4.35;3.50;;;19.10;99.90;;;;;;5033594;28;20545;-59
2022/08/22 05:42:31;;;;;;;4.72;3.75;;;19.00;99.90;;;;;;5026037;28;20175;-59
2022/08/22 05:45:00;;;;;;;8.82;3.55;;;19.00;99.90;;;;;;5021129;28;20171;-59
2022/08/22 05:47:38;;;;;;;6.03;4.22;;;19.10;99.90;;;;;;5015835;28;20194;-59
2022/08/22 05:50:26;;;;;;;7.47;4.55;;;19.00;99.90;;;;;;5022842;28;20627;-59
2022/08/22 05:53:09;;;;;;;3.88;3.58;;;18.70;99.90;;;;;;5014272;28;20171;-60
2022/08/22 05:55:47;;;;;;;5.43;3.67;;;18.80;99.90;;;;;;5017926;28;20183;-59
2022/08/22 05:58:31;;;;;;;6.25;3.38;;;18.70;99.90;;;;;;5017428;28;20203;-59
2022/08/22 06:01:10;;;;;;;8.60;4.28;;;18.60;99.90;;;;;;5024572;28;20182;-60
2022/08/22 06:03:44;;;;;;;5.65;3.55;;;18.90;99.90;;;;;;5033088;28;20567;-60
2022/08/22 06:06:15;;;;;;;7.20;3.90;;;18.90;99.90;;;;;;5027926;28;20167;-60
2022/08/22 06:08:47;;;;;;;7.93;3.83;;;18.80;99.90;;;;;;5032668;28;20210;-60
2022/08/22 06:11:27;;;;;;;7.15;3.88;;;18.60;99.90;;;;;;5024274;28;20179;-60
2022/08/22 06:14:15;;;;;;;6.85;3.65;;;18.60;99.90;;;;;;5013860;28;20183;-59
2022/08/22 06:17:09;;;;;;;8.52;5.00;;;18.60;99.90;;;;;;5015332;28;20183;-60
2022/08/22 06:19:43;;;;;;;5.15;3.83;;;18.60;99.90;;;;;;5015216;28;20200;-60
2022/08/22 06:22:10;;;;;;;7.10;4.22;;;18.80;99.90;;;;;;5015590;28;20194;-60
2022/08/22 06:24:38;;;;;;;4.07;3.63;;;18.90;99.90;;;;;;5048978;28;20650;-59
2022/08/22 06:27:08;;;;;;;8.73;3.72;;;18.60;99.90;;;;;;5033567;28;20240;-60
2022/08/22 06:29:48;;;;;;;8.88;4.65;;;18.30;99.90;;;;;;5030574;28;20179;-60
2022/08/22 06:32:26;;;;;;;7.28;4.55;;;18.30;99.90;;;;;;5032216;28;20178;-60
2022/08/22 06:34:57;;;;;;;8.32;4.63;;;18.30;99.90;;;;;;5032912;28;20175;-61
2022/08/22 06:37:32;;;;;;;6.43;3.90;;;18.30;99.90;;;;;;5018178;28;20187;-60
2022/08/22 06:40:01;;;;;;;5.88;4.32;;;18.50;99.90;;;;;;5014745;28;20195;-60
2022/08/22 06:42:31;;;;;;;10.88;4.03;;;18.60;99.90;;;;;;5023660;28;20233;-60
2022/08/22 06:45:07;;;;;;;4.45;3.53;;;18.60;99.90;;;;;;5029288;28;20186;-60
2022/08/22 06:47:38;;;;;;;5.47;3.58;;;18.70;99.90;;;;;;5021043;28;20258;-60
2022/08/22 06:50:13;;;;;;;8.27;3.72;;;18.90;99.90;;;;;;5029547;28;20202;-60
2022/08/22 06:52:52;;;;;;;8.98;4.20;;;19.00;99.90;;;;;;5029607;28;20598;-60
2022/08/22 06:55:18;;;;;;;10.75;3.60;;;19.00;99.90;;;;;;5032185;28;20256;-60
2022/08/22 06:57:53;;;;;;;5.60;4.35;;;18.90;99.90;;;;;;5030054;28;20187;-60
2022/08/22 07:00:19;;;;;;;9.35;4.40;;;18.90;99.90;;;;;;5027583;28;20187;-60
2022/08/22 07:02:53;;;;;;;11.02;5.28;;;19.00;99.90;;;;;;5025015;28;20639;-60
2022/08/22 07:05:24;;;;;;;6.18;3.60;;;19.30;99.90;;;;;;5013832;28;20573;-60
2022/08/22 07:07:50;;;;;;;8.80;4.05;;;19.40;99.90;;;;;;5022604;28;20353;-61
2022/08/22 07:10:17;;;;;;;9.07;4.13;;;19.40;99.90;;;;;;5025809;28;20525;-60
2022/08/22 07:12:47;;;;;;;6.70;3.97;;;19.30;99.90;;;;;;5032625;28;20287;-60
2022/08/22 07:15:33;;;;;;;10.27;4.90;;;19.50;99.90;;;;;;5029875;28;20182;-60
2022/08/22 07:18:22;;;;;;;4.97;3.80;;;19.60;99.90;;;;;;5018763;28;20515;-60
2022/08/22 07:20:51;;;;;;;10.65;3.80;;;19.80;99.90;;;;;;5012742;28;20224;-60
2022/08/22 07:23:46;;;;;;;5.80;3.72;;;19.90;99.90;;;;;;5027098;28;20179;-60
2022/08/22 07:26:18;;;;;;;6.60;4.13;;;20.00;99.90;;;;;;5027644;28;20175;-60
2022/08/22 07:29:09;;;;;;;5.75;4.35;;;20.10;99.90;;;;;;5014196;28;20179;-60
2022/08/22 07:31:57;;;;;;;8.70;3.33;;;20.20;99.90;;;;;;5017208;28;20573;-60
2022/08/22 07:34:48;;;;;;;9.60;5.13;;;20.50;99.90;;;;;;5014172;28;20262;-60
2022/08/22 07:37:36;;;;;;;7.45;4.07;;;20.70;99.90;;;;;;5013846;28;20194;-60
2022/08/22 07:40:26;;;;;;;8.02;4.15;;;20.70;99.90;;;;;;5014294;28;20222;-61
2022/08/22 07:43:24;;;;;;;6.63;4.00;;;20.50;99.90;;;;;;5053016;28;20191;-61
2022/08/22 07:45:54;;;;;;;5.10;4.40;;;20.80;99.90;;;;;;5011450;28;20214;-61
2022/08/22 07:48:32;;;;;;;6.90;4.60;;;21.10;99.90;;;;;;5013141;28;20184;-60
2022/08/22 07:51:03;;;;;;;7.47;4.35;;;21.20;99.90;;;;;;5020854;28;20183;-60
2022/08/22 07:53:41;;;;;;;5.07;4.65;;;21.30;99.90;;;;;;5016321;28;20277;-60
2022/08/22 07:56:17;;;;;;;13.70;5.13;;;21.30;99.90;;;;;;5011822;28;20211;-60
2022/08/22 07:58:47;;;;;;;12.68;4.57;;;21.20;99.90;;;;;;5017736;28;20276;-60
2022/08/22 08:01:18;;;;;;;11.43;5.72;;;21.30;99.90;;;;;;5012226;28;20179;-60
2022/08/22 08:03:54;;;;;;;3.67;3.38;;;21.40;99.90;;;;;;5044341;28;20190;-60
2022/08/22 08:06:22;;;;;;;4.63;4.18;;;21.50;99.90;;;;;;5012878;28;20624;-60
2022/08/22 08:08:50;;;;;;;5.38;4.20;;;21.50;99.90;;;;;;5013074;28;20175;-60
2022/08/22 08:11:18;;;;;;;4.95;4.55;;;21.30;99.90;;;;;;5018981;28;20261;-60
2022/08/22 08:13:50;;;;;;;9.35;6.75;;;21.10;99.90;;;;;;5015010;28;20183;-60
2022/08/22 08:16:20;;;;;;;10.15;5.55;;;21.20;99.90;;;;;;5016401;28;20600;-63
2022/08/22 08:18:49;;;;;;;8.90;4.65;;;21.20;99.90;;;;;;5023216;28;20211;-62
2022/08/22 08:21:30;;;;;;;9.60;4.43;;;21.30;99.90;;;;;;5020238;28;20209;-62
2022/08/22 08:23:57;;;;;;;5.05;3.50;;;21.60;99.90;;;;;;5019909;28;20238;-61
2022/08/22 08:26:29;;;;;;;5.38;3.75;;;21.90;99.90;;;;;;5020111;28;20222;-62
2022/08/22 08:28:57;;;;;;;8.48;4.88;;;21.80;99.90;;;;;;5023151;28;20194;-62
2022/08/22 08:31:36;;;;;;;4.95;3.30;;;21.80;99.90;;;;;;5018038;28;20254;-62
2022/08/22 08:34:18;;;;;;;7.22;4.55;;;21.80;99.90;;;;;;5023272;28;20676;-62
2022/08/22 08:37:01;;;;;;;7.88;4.15;;;21.90;99.90;;;;;;5012983;28;20233;-62
2022/08/22 08:39:37;;;;;;;8.70;3.80;;;22.10;99.90;;;;;;5021064;28;20606;-62
2022/08/22 08:42:09;;;;;;;7.03;4.35;;;22.40;99.90;;;;;;5019403;28;20189;-63
2022/08/22 08:45:06;;;;;;;7.50;3.90;;;22.70;99.90;;;;;;5020507;28;20182;-63
2022/08/22 08:47:34;;;;;;;7.28;5.78;;;23.00;99.90;;;;;;5020586;28;20183;-61
2022/08/22 08:50:31;;;;;;;6.80;4.40;;;22.90;99.90;;;;;;5011920;28;20190;-60
2022/08/22 08:53:09;;;;;;;6.55;4.43;;;22.80;99.90;;;;;;5012653;28;20179;-61
2022/08/22 08:55:51;;;;;;;4.65;3.65;;;22.60;99.90;;;;;;5027525;28;20182;-60
2022/08/22 08:58:42;;;;;;;5.65;3.92;;;22.70;99.90;;;;;;5015466;28;20207;-60
2022/08/22 09:01:15;;;;;;;5.60;3.85;;;22.90;99.90;;;;;;5019534;28;20168;-60
2022/08/22 09:03:42;;;;;;;7.75;4.10;;;23.20;99.90;;;;;;5012845;28;20187;-60
2022/08/22 09:06:33;;;;;;;10.32;3.85;;;24.50;99.90;;;;;;5016899;28;20175;-59
2022/08/22 09:09:05;;;;;;;7.72;4.28;;;25.80;99.90;;;;;;5012446;28;20262;-60
2022/08/22 09:11:53;;;;;;;4.93;3.42;;;26.20;99.90;;;;;;5012458;28;20233;-59
2022/08/22 09:14:26;;;;;;;5.05;4.50;;;26.30;99.90;;;;;;5017742;28;20597;-59
2022/08/22 09:17:15;;;;;;;13.50;4.95;;;25.70;99.90;;;;;;5019114;28;20705;-59
2022/08/22 09:19:41;;;;;;;6.22;4.53;;;25.30;99.90;;;;;;5028580;28;20290;-59
2022/08/22 09:22:33;;;;;;;7.57;4.32;;;25.50;99.90;;;;;;5021513;28;20253;-59
2022/08/22 09:25:24;;;;;;;5.90;3.28;;;25.20;99.90;;;;;;5025988;28;20166;-58
2022/08/22 09:28:15;;;;;;;8.30;3.83;;;25.40;99.90;;;;;;5024562;28;20269;-60
2022/08/22 09:30:46;;;;;;;9.73;4.47;;;25.20;99.90;;;;;;5015524;28;20175;-59
2022/08/22 09:33:16;;;;;;;7.82;4.30;;;25.20;99.90;;;;;;5016217;28;20182;-60
2022/08/22 09:35:54;;;;;;;9.32;4.03;;;25.30;99.90;;;;;;5015656;28;20726;-59
2022/08/22 09:38:21;;;;;;;4.78;3.58;;;25.00;99.90;;;;;;5016527;28;20214;-59
2022/08/22 09:40:55;;;;;;;6.32;3.83;;;25.00;99.90;;;;;;5016215;28;20180;-59
2022/08/22 09:43:47;;;;;;;5.60;4.00;;;25.10;99.90;;;;;;5021632;28;20174;-59
2022/08/22 09:46:24;;;;;;;8.90;3.88;;;25.10;99.90;;;;;;5015795;28;20183;-59
2022/08/22 09:48:50;;;;;;;8.45;3.67;;;25.20;99.90;;;;;;5026767;28;20178;-60
2022/08/22 09:51:57;;;;;;;3.53;3.22;;;25.40;99.90;;;;;;5034563;28;20178;-59
2022/08/22 09:54:40;;;;;;;8.65;3.75;;;25.40;99.90;;;;;;5026470;28;20273;-59
2022/08/22 09:57:26;;;;;;;7.65;3.90;;;25.30;99.90;;;;;;5029279;28;20170;-65
2022/08/22 10:00:08;;;;;;;5.45;4.18;;;25.10;99.90;;;;;;5049162;28;20217;-64
2022/08/22 10:02:43;;;;;;;4.15;3.80;;;25.00;99.90;;;;;;5022628;28;20175;-64
2022/08/22 10:05:31;;;;;;;6.60;4.25;;;25.50;99.90;;;;;;5017157;28;20615;-65
2022/08/22 10:08:00;;;;;;;11.82;5.28;;;25.50;99.90;;;;;;5026205;28;20256;-65
2022/08/22 10:10:45;;;;;;;5.22;3.50;;;25.00;99.90;;;;;;5015035;28;20222;-65
2022/08/22 10:13:13;;;;;;;4.80;3.72;;;24.90;99.90;;;;;;5017979;28;20167;-65
2022/08/22 10:15:48;;;;;;;4.57;3.17;;;25.00;99.90;;;;;;5018306;28;20659;-65
2022/08/22 10:18:37;;;;;;;9.00;3.47;;;25.10;99.90;;;;;;5018724;28;20261;-64
2022/08/22 10:21:21;;;;;;;3.70;3.33;;;25.00;99.90;;;;;;5014313;28;20621;-65
2022/08/22 10:24:10;;;;;;;3.75;3.25;;;25.30;99.90;;;;;;5014583;28;20178;-66
2022/08/22 10:26:45;;;;;;;10.35;3.95;;;25.50;99.90;;;;;;5031560;28;20171;-67
2022/08/22 10:29:41;;;;;;;17.98;3.25;;;25.10;99.90;;;;;;5031132;28;20201;-65
2022/08/22 10:32:22;;;;;;;8.15;2.88;;;25.40;99.90;;;;;;5021258;28;20168;-65
2022/08/22 10:34:53;;;;;;;3.67;2.03;;;25.50;99.90;;;;;;5016632;28;20224;-65
2022/08/22 10:37:23;;;;;;;6.45;3.53;;;25.70;99.90;;;;;;5015197;28;20190;-66
2022/08/22 10:40:28;;;;;;;6.15;2.38;;;26.00;99.90;;;;;;5027737;28;20199;-65
2022/08/22 10:43:15;;;;;;;11.93;3.10;;;26.10;99.90;;;;;;5019257;28;20210;-65
2022/08/22 10:45:51;;;;;;;6.45;2.85;;;25.60;99.90;;;;;;5021531;28;20259;-64
2022/08/22 10:48:31;;;;;;;3.85;3.00;;;25.70;99.90;;;;;;5025083;28;20232;-64
2022/08/22 10:51:28;;;;;;;10.15;3.05;;;25.60;99.90;;;;;;5030378;28;20256;-65
2022/08/22 10:53:57;;;;;;;3.85;2.60;;;25.10;99.90;;;;;;5019667;28;20639;-64
2022/08/22 10:56:53;;;;;;;2.30;2.00;;;25.20;99.90;;;;;;5023415;28;20179;-64
2022/08/22 10:59:35;;;;;;;3.47;2.60;;;25.40;99.90;;;;;;5014236;28;20690;-65
2022/08/22 11:02:19;;;;;;;6.50;2.22;;;25.50;99.90;;;;;;5017695;28;20176;-65
2022/08/22 11:05:27;;;;;;;11.10;4.50;;;25.60;99.90;;;;;;5018425;28;20628;-64
2022/08/22 11:08:22;;;;;;;5.70;3.13;;;25.50;99.90;;;;;;5024270;28;20659;-65
2022/08/22 11:10:48;;;;;;;3.67;2.83;;;25.50;99.90;;;;;;5015315;28;20282;-64
2022/08/22 11:13:25;;;;;;;4.72;2.53;;;25.50;99.90;;;;;;5024217;28;20586;-65
2022/08/22 11:16:18;;;;;;;5.93;2.67;;;25.80;99.90;;;;;;5028690;28;20170;-65
2022/08/22 11:18:47;;;;;;;5.95;3.25;;;25.90;99.90;;;;;;5015763;28;20660;-66
2022/08/22 11:21:42;;;;;;;4.03;2.30;;;26.00;99.90;;;;;;5014164;28;20174;-64
2022/08/22 11:24:36;;;;;;;3.50;3.20;;;26.20;99.90;;;;;;5014473;28;20636;-66
2022/08/22 11:27:36;;;;;;;3.42;2.70;;;26.30;99.90;;;;;;5026975;28;20228;-65
2022/08/22 11:30:28;;;;;;;3.30;2.97;;;26.10;99.90;;;;;;5015910;28;20249;-65
2022/08/22 11:32:58;;;;;;;2.30;2.05;;;25.70;99.90;;;;;;5016642;28;20699;-65
2022/08/22 11:35:36;;;;;;;3.53;2.83;;;26.00;99.90;;;;;;5016614;28;20193;-65
2022/08/22 11:38:34;;;;;;;6.90;3.22;;;26.30;99.90;;;;;;5049163;28;20182;-65
2022/08/22 11:41:40;;;;;;;2.35;2.00;;;26.40;99.90;;;;;;5021520;28;20547;-65
2022/08/22 11:44:16;;;;;;;6.22;2.53;;;26.70;99.90;;;;;;5020751;28;20194;-65
2022/08/22 11:46:49;;;;;;;2.97;2.00;;;26.60;99.90;;;;;;5021165;28;20178;-64
2022/08/22 11:49:42;;;;;;;2.75;2.28;;;27.00;99.90;;;;;;5020075;28;20197;-65
2022/08/22 11:52:25;;;;;;;5.93;3.30;;;27.40;99.90;;;;;;5029500;28;20187;-66
2022/08/22 11:55:07;;;;;;;8.73;2.67;;;27.50;99.90;;;;;;5017722;28;20305;-65
2022/08/22 11:57:44;;;;;;;4.10;1.95;;;27.70;99.90;;;;;;5017291;28;20267;-61
2022/08/22 12:00:33;;;;;;;5.03;2.80;;;27.80;99.90;;;;;;5024676;28;20202;-60
2022/08/22 12:03:17;;;;;;;4.25;2.65;;;27.50;99.90;;;;;;5012461;28;20201;-61
2022/08/22 12:05:48;;;;;;;4.53;3.78;;;27.50;99.90;;;;;;5020407;28;20253;-61
2022/08/22 12:08:48;;;;;;;2.92;2.33;;;27.40;99.90;;;;;;5013725;28;20209;-61
2022/08/22 12:11:47;;;;;;;4.68;1.88;;;27.40;99.90;;;;;;5017482;28;20225;-61
2022/08/22 12:14:39;;;;;;;1.90;1.80;;;27.70;99.90;;;;;;5012141;28;20174;-61
2022/08/22 12:17:17;;;;;;;8.82;2.30;;;28.10;99.90;;;;;;5017995;28;20167;-61
2022/08/22 12:20:06;;;;;;;4.68;2.45;;;28.30;99.90;;;;;;5017618;28;20205;-61
2022/08/22 12:22:45;;;;;;;5.13;2.28;;;28.20;99.90;;;;;;5031081;28;20197;-60
2022/08/22 12:25:50;;;;;;;3.20;2.20;;;27.70;99.90;;;;;;5014597;28;20277;-60
2022/08/22 12:28:58;;;;;;;3.53;2.20;;;27.70;99.90;;;;;;5020793;28;20191;-61
2022/08/22 12:31:26;;;;;;;3.67;2.67;;;27.70;99.90;;;;;;5013757;28;20236;-60
2022/08/22 12:34:11;;;;;;;2.55;2.00;;;27.90;99.90;;;;;;5025571;28;20195;-62
2022/08/22 12:37:04;;;;;;;4.05;2.95;;;28.00;99.90;;;;;;5026798;28;20182;-60
2022/08/22 12:39:52;;;;;;;9.05;2.10;;;27.60;99.90;;;;;;5019369;28;20289;-61
2022/08/22 12:43:01;;;;;;;5.70;2.00;;;27.70;99.90;;;;;;5018529;28;20663;-61
2022/08/22 12:46:04;;;;;;;2.70;2.17;;;27.70;99.90;;;;;;5012827;28;20175;-60
2022/08/22 12:48:53;;;;;;;4.97;2.10;;;27.70;99.90;;;;;;5025898;28;20237;-61
2022/08/22 12:51:24;;;;;;;2.75;2.25;;;27.30;99.90;;;;;;5027986;28;20182;-60
2022/08/22 12:54:07;;;;;;;3.15;2.20;;;27.40;99.90;;;;;;5017974;28;20182;-61
2022/08/22 12:56:45;;;;;;;2.35;2.13;;;27.30;99.90;;;;;;5013527;28;20286;-61
2022/08/22 12:59:21;;;;;;;5.47;1.95;;;27.50;99.90;;;;;;5017757;28;20202;-61
2022/08/22 13:01:50;;;;;;;2.83;2.15;;;27.70;99.90;;;;;;5027295;28;20175;-61
2022/08/22 13:04:20;;;;;;;2.80;1.95;;;28.00;99.90;;;;;;5021502;28;20182;-61
2022/08/22 13:06:53;;;;;;;2.50;1.80;;;28.40;99.90;;;;;;5019157;28;20566;-62
2022/08/22 13:09:30;;;;;;;2.60;2.15;;;28.60;99.90;;;;;;5016450;28;20174;-61
2022/08/22 13:12:24;;;;;;;2.97;2.22;;;28.60;99.90;;;;;;5017049;28;20262;-60
2022/08/22 13:14:56;;;;;;;2.72;2.17;;;28.70;99.90;;;;;;5015997;28;20194;-61
2022/08/22 13:17:22;;;;;;;2.60;2.00;;;28.60;99.90;;;;;;5019888;28;20514;-61
2022/08/22 13:20:09;;;;;;;3.45;1.92;;;28.40;99.90;;;;;;5018675;28;20202;-60
2022/08/22 13:22:38;;;;;;;5.88;2.45;;;28.20;99.90;;;;;;5036558;28;20191;-61
2022/08/22 13:25:15;;;;;;;2.72;2.15;;;28.10;99.90;;;;;;5018770;28;20175;-61
2022/08/22 13:27:44;;;;;;;1.80;1.70;;;28.10;99.90;;;;;;5015923;28;20182;-60
2022/08/22 13:30:18;;;;;;;3.13;2.20;;;27.80;99.90;;;;;;5021260;28;20665;-62
2022/08/22 13:32:50;;;;;;;2.10;2.00;;;27.90;99.90;;;;;;5016338;28;20177;-60
2022/08/22 13:35:29;;;;;;;3.80;2.00;;;28.20;99.90;;;;;;5048263;28;20186;-62
2022/08/22 13:38:04;;;;;;;7.38;2.35;;;28.20;99.90;;;;;;5018333;28;20193;-60
2022/08/22 13:40:32;;;;;;;4.15;1.98;;;28.30;99.90;;;;;;5026753;28;20196;-60
2022/08/22 13:43:07;;;;;;;4.63;2.47;;;28.40;99.90;;;;;;5015743;28;20183;-61
2022/08/22 13:45:35;;;;;;;2.03;1.92;;;28.60;99.90;;;;;;5025068;28;20184;-61
2022/08/22 13:48:07;;;;;;;2.67;1.80;;;28.50;99.90;;;;;;5017433;28;20334;-60
2022/08/22 13:50:38;;;;;;;3.05;1.50;;;28.20;99.90;;;;;;5023446;28;20213;-59
2022/08/22 13:53:12;;;;;;;3.78;1.42;;;28.30;99.90;;;;;;5017464;28;20179;-60
2022/08/22 13:55:49;;;;;;;5.07;1.90;;;28.20;99.90;;;;;;5025242;28;20237;-61
2022/08/22 13:58:26;;;;;;;6.28;2.35;;;28.10;99.90;;;;;;5031688;28;20174;-60